Time;durP1;ratioP1;P1;durP2;ratioP2;P2;SDS_P1;SDS_P2;PMS_P1;PMS_P2;Temp;Humidity;BMP_temperature;BMP_pressure;BME280_temperature;BME280_humidity;BME280_pressure;Samples;Min_cycle;Max_cycle;Signal;HPM_P1;HPM_P2
2022/01/04 00:00:36;;;;;;;25.75;8.52;;;9.70;99.90;;;;;;5053514;28;20159;-75
2022/01/04 00:03:02;;;;;;;27.67;8.60;;;9.70;99.90;;;;;;5053318;28;20017;-75
2022/01/04 00:05:28;;;;;;;26.33;9.43;;;9.70;99.90;;;;;;5053288;28;20032;-75
2022/01/04 00:07:54;;;;;;;25.27;9.95;;;9.80;99.90;;;;;;5053469;28;20048;-75
2022/01/04 00:10:22;;;;;;;29.38;10.40;;;9.70;99.90;;;;;;5053121;28;20025;-75
2022/01/04 00:15:34;;;;;;;26.98;10.60;;;9.70;99.90;;;;;;5053174;28;20496;-75
2022/01/04 00:17:59;;;;;;;26.33;10.05;;;9.70;99.90;;;;;;5053108;28;20071;-75
2022/01/04 00:20:25;;;;;;;32.40;11.00;;;9.70;99.90;;;;;;5053011;28;20017;-75
2022/01/04 00:22:51;;;;;;;33.20;11.57;;;9.70;99.90;;;;;;5034811;28;20057;-75
2022/01/04 00:25:16;;;;;;;29.65;11.38;;;9.70;99.90;;;;;;5053194;28;20118;-75
2022/01/04 00:27:42;;;;;;;29.20;10.05;;;9.70;99.90;;;;;;5052598;28;20112;-77
2022/01/04 00:30:09;;;;;;;25.55;10.38;;;9.70;99.90;;;;;;5052872;28;20017;-74
2022/01/04 00:32:34;;;;;;;27.70;10.70;;;9.60;99.90;;;;;;5052673;28;20017;-75
2022/01/04 00:35:00;;;;;;;29.30;11.02;;;9.60;99.90;;;;;;5052760;28;20040;-74
2022/01/04 00:37:26;;;;;;;28.92;11.10;;;9.60;99.90;;;;;;5052470;28;20040;-75
2022/01/04 00:39:51;;;;;;;24.80;10.70;;;9.60;99.90;;;;;;5052602;28;20473;-74
2022/01/04 00:42:17;;;;;;;28.85;11.32;;;9.60;99.90;;;;;;5051705;28;20056;-74
2022/01/04 00:44:42;;;;;;;29.95;10.55;;;9.60;99.90;;;;;;5052315;28;20032;-75
2022/01/04 00:47:09;;;;;;;27.63;10.68;;;9.60;99.90;;;;;;5052248;28;20055;-75
2022/01/04 00:49:36;;;;;;;33.63;11.07;;;9.60;99.90;;;;;;5052584;28;20059;-75
2022/01/04 00:52:01;;;;;;;28.20;11.43;;;9.60;99.90;;;;;;5052143;28;20021;-76
2022/01/04 00:54:28;;;;;;;30.75;12.23;;;9.60;99.90;;;;;;5052566;28;20489;-75
2022/01/04 00:56:53;;;;;;;32.22;11.70;;;9.60;99.90;;;;;;5052574;28;20037;-74
2022/01/04 00:59:19;;;;;;;24.70;10.52;;;9.60;99.90;;;;;;5052734;28;20072;-75
2022/01/04 01:01:45;;;;;;;30.98;11.88;;;9.60;99.90;;;;;;5052394;28;20052;-76
2022/01/04 01:04:11;;;;;;;34.60;12.50;;;9.60;99.90;;;;;;5034766;28;20063;-76
2022/01/04 01:06:37;;;;;;;26.88;12.70;;;9.60;99.90;;;;;;5052306;28;20048;-75
2022/01/04 01:09:04;;;;;;;26.85;12.55;;;9.60;99.90;;;;;;5052362;28;20429;-75
2022/01/04 01:11:30;;;;;;;30.88;12.48;;;9.60;99.90;;;;;;5052189;28;20029;-75
2022/01/04 01:13:56;;;;;;;32.03;12.90;;;9.60;99.90;;;;;;5052040;28;20074;-75
2022/01/04 01:16:22;;;;;;;28.60;13.63;;;9.60;99.90;;;;;;5052038;28;20112;-76
2022/01/04 01:18:48;;;;;;;31.20;13.50;;;9.60;99.90;;;;;;5052297;28;20059;-75
2022/01/04 01:21:14;;;;;;;32.95;13.43;;;9.60;99.90;;;;;;5051851;28;20056;-75
2022/01/04 01:23:40;;;;;;;27.55;13.27;;;9.60;99.90;;;;;;5051971;28;20103;-74
2022/01/04 01:26:08;;;;;;;20.25;12.20;;;9.60;99.90;;;;;;5051725;28;20090;-74
2022/01/04 01:28:35;;;;;;;33.20;14.43;;;9.60;99.90;;;;;;5051959;28;20465;-74
2022/01/04 01:31:01;;;;;;;27.52;13.18;;;9.60;99.90;;;;;;5051831;28;20045;-74
2022/01/04 01:33:28;;;;;;;31.25;13.35;;;9.50;99.90;;;;;;5051516;28;20436;-74
2022/01/04 01:35:55;;;;;;;28.42;13.25;;;9.60;99.90;;;;;;5051622;28;20054;-74
2022/01/04 01:38:21;;;;;;;28.88;13.93;;;9.50;99.90;;;;;;5051462;28;20025;-75
2022/01/04 01:40:48;;;;;;;27.90;14.32;;;9.50;99.90;;;;;;5051458;28;20408;-74
2022/01/04 01:43:14;;;;;;;25.50;13.88;;;9.50;99.90;;;;;;5051518;28;20025;-74
2022/01/04 01:45:41;;;;;;;28.58;13.85;;;9.50;99.90;;;;;;5051791;28;20393;-74
2022/01/04 01:48:06;;;;;;;25.55;13.50;;;9.60;99.90;;;;;;5051665;28;20033;-74
2022/01/04 01:50:32;;;;;;;26.63;13.43;;;9.50;99.90;;;;;;5052767;28;20078;-74
2022/01/04 01:52:59;;;;;;;22.48;12.95;;;9.50;99.90;;;;;;5053568;28;20091;-74
2022/01/04 01:55:25;;;;;;;23.50;13.13;;;9.50;99.90;;;;;;5052650;28;20097;-74
2022/01/04 01:57:52;;;;;;;26.77;12.80;;;9.50;99.90;;;;;;5051383;28;20115;-74
2022/01/04 02:00:21;;;;;;;25.70;12.30;;;9.50;99.90;;;;;;5051550;28;20025;-75
2022/01/04 02:02:47;;;;;;;24.23;11.95;;;9.50;99.90;;;;;;5050891;28;20033;-74
2022/01/04 02:05:13;;;;;;;29.65;12.85;;;9.50;99.90;;;;;;5051148;28;20060;-73
2022/01/04 02:07:41;;;;;;;27.85;13.07;;;9.50;99.90;;;;;;5051043;28;20614;-74
2022/01/04 02:10:08;;;;;;;27.40;12.85;;;9.50;99.90;;;;;;5051180;28;20021;-75
2022/01/04 02:12:39;;;;;;;24.83;13.60;;;9.50;99.90;;;;;;5050969;28;20017;-74
2022/01/04 02:15:08;;;;;;;29.08;13.32;;;9.50;99.90;;;;;;5050780;28;20071;-75
2022/01/04 02:17:34;;;;;;;25.67;12.90;;;9.50;99.90;;;;;;5050702;28;20033;-75
2022/01/04 02:20:00;;;;;;;25.48;12.93;;;9.50;99.90;;;;;;5050742;28;20033;-74
2022/01/04 02:22:27;;;;;;;28.40;12.55;;;9.40;99.90;;;;;;5050884;28;20065;-74
2022/01/04 02:24:53;;;;;;;24.90;12.80;;;9.50;99.90;;;;;;5050717;28;20060;-75
2022/01/04 02:27:19;;;;;;;24.15;11.93;;;9.40;99.90;;;;;;5050636;28;20479;-74
2022/01/04 02:29:47;;;;;;;27.45;12.57;;;9.40;99.90;;;;;;5050379;28;20025;-75
2022/01/04 02:32:13;;;;;;;27.80;11.90;;;9.40;99.90;;;;;;5050602;28;20021;-75
2022/01/04 02:34:39;;;;;;;26.15;12.27;;;9.40;99.90;;;;;;5050497;28;20025;-75
2022/01/04 02:37:06;;;;;;;24.63;12.30;;;9.50;99.90;;;;;;5050957;28;20116;-75
2022/01/04 02:39:35;;;;;;;24.52;11.85;;;9.40;99.90;;;;;;5050458;28;20373;-74
2022/01/04 02:42:02;;;;;;;26.27;11.90;;;9.40;99.90;;;;;;5050371;28;20147;-75
2022/01/04 02:44:27;;;;;;;25.35;12.15;;;9.40;99.90;;;;;;5050233;28;20032;-75
2022/01/04 02:46:53;;;;;;;22.52;12.18;;;9.40;99.90;;;;;;5050311;28;20028;-75
2022/01/04 02:49:19;;;;;;;28.50;13.07;;;9.40;99.90;;;;;;5050488;28;20029;-75
2022/01/04 02:51:44;;;;;;;25.45;11.68;;;9.40;99.90;;;;;;5050370;28;20024;-75
2022/01/04 02:54:10;;;;;;;36.13;13.13;;;9.40;99.90;;;;;;5032255;28;20047;-74
2022/01/04 02:56:35;;;;;;;30.20;13.13;;;9.40;99.90;;;;;;5050246;28;20028;-75
2022/01/04 02:59:03;;;;;;;34.97;13.30;;;9.40;99.90;;;;;;5050087;28;20035;-74
2022/01/04 03:01:30;;;;;;;38.15;13.23;;;9.40;99.90;;;;;;5050502;28;20358;-75
2022/01/04 03:03:56;;;;;;;30.63;13.52;;;9.40;99.90;;;;;;5050135;28;20060;-74
2022/01/04 03:06:22;;;;;;;33.90;14.77;;;9.30;99.90;;;;;;5051784;28;20056;-74
2022/01/04 03:08:47;;;;;;;31.33;14.70;;;9.40;99.90;;;;;;5054343;28;20029;-74
2022/01/04 03:11:13;;;;;;;36.60;15.98;;;9.30;99.90;;;;;;5054341;28;20477;-74
2022/01/04 03:13:38;;;;;;;33.58;15.57;;;9.30;99.90;;;;;;5054195;28;20435;-74
2022/01/04 03:16:04;;;;;;;32.58;15.57;;;9.30;99.90;;;;;;5054183;28;20377;-75
2022/01/04 03:18:30;;;;;;;33.45;16.70;;;9.40;99.90;;;;;;5054212;28;20108;-74
2022/01/04 03:20:55;;;;;;;30.77;16.02;;;9.30;99.90;;;;;;5054194;28;20079;-74
2022/01/04 03:23:21;;;;;;;33.45;16.52;;;9.30;99.90;;;;;;5054016;28;20119;-74
2022/01/04 03:25:46;;;;;;;36.25;17.05;;;9.30;99.90;;;;;;5054074;28;20110;-74
2022/01/04 03:28:13;;;;;;;34.63;17.02;;;9.30;99.90;;;;;;5053831;28;20033;-74
2022/01/04 03:30:39;;;;;;;35.83;15.63;;;9.40;99.90;;;;;;5054071;28;20074;-74
2022/01/04 03:33:05;;;;;;;32.60;15.98;;;9.30;99.90;;;;;;5053899;28;20412;-74
2022/01/04 03:35:30;;;;;;;31.35;15.82;;;9.30;99.90;;;;;;5053739;28;20025;-74
2022/01/04 03:37:56;;;;;;;33.90;15.05;;;9.30;99.90;;;;;;5053822;28;20029;-75
2022/01/04 03:40:21;;;;;;;32.72;15.95;;;9.30;99.90;;;;;;5053978;28;20025;-75
2022/01/04 03:42:47;;;;;;;32.15;15.50;;;9.30;99.90;;;;;;5053663;28;20025;-74
2022/01/04 03:45:13;;;;;;;30.10;15.48;;;9.30;99.90;;;;;;5053810;28;20457;-74
2022/01/04 03:47:38;;;;;;;31.70;15.70;;;9.30;99.90;;;;;;5053596;28;20029;-75
2022/01/04 03:50:04;;;;;;;29.40;14.93;;;9.30;99.90;;;;;;5053662;28;20036;-74
2022/01/04 03:52:30;;;;;;;33.75;16.05;;;9.30;99.90;;;;;;5053454;28;20070;-75
2022/01/04 03:54:56;;;;;;;30.65;15.90;;;9.30;99.90;;;;;;5068287;28;20103;-75
2022/01/04 03:57:21;;;;;;;26.48;15.57;;;9.30;99.90;;;;;;5073165;28;20024;-74
2022/01/04 03:59:47;;;;;;;29.33;16.45;;;9.30;99.90;;;;;;5073711;28;20032;-75
2022/01/04 04:02:13;;;;;;;28.27;16.23;;;9.30;99.90;;;;;;5073607;28;20028;-74
2022/01/04 04:04:38;;;;;;;29.10;16.92;;;9.30;99.90;;;;;;5073217;28;20024;-75
2022/01/04 04:07:04;;;;;;;30.67;17.50;;;9.30;99.90;;;;;;5073154;28;20158;-74
2022/01/04 04:09:34;;;;;;;34.45;17.48;;;9.30;99.90;;;;;;5073730;28;20021;-75
2022/01/04 04:12:00;;;;;;;32.60;17.52;;;9.30;99.90;;;;;;5073000;28;20021;-75
2022/01/04 04:14:26;;;;;;;31.15;17.63;;;9.30;99.90;;;;;;5073114;28;20027;-75
2022/01/04 04:16:52;;;;;;;30.17;18.08;;;9.30;99.90;;;;;;5073118;28;20435;-75
2022/01/04 04:19:17;;;;;;;31.80;17.20;;;9.30;99.90;;;;;;5073354;28;20094;-75
2022/01/04 04:21:43;;;;;;;30.85;16.75;;;9.30;99.90;;;;;;5073346;28;20020;-75
2022/01/04 04:24:08;;;;;;;31.58;17.23;;;9.30;99.90;;;;;;5072947;28;20052;-75
2022/01/04 04:26:34;;;;;;;29.98;15.98;;;9.30;99.90;;;;;;5072630;28;20021;-75
2022/01/04 04:28:59;;;;;;;31.55;16.65;;;9.30;99.90;;;;;;5072938;28;20483;-75
2022/01/04 04:31:25;;;;;;;30.67;16.63;;;9.30;99.90;;;;;;5072740;28;20100;-75
2022/01/04 04:33:50;;;;;;;33.25;16.48;;;9.30;99.90;;;;;;5072771;28;20021;-75
2022/01/04 04:36:16;;;;;;;37.55;18.33;;;9.30;99.90;;;;;;5072739;28;20039;-74
2022/01/04 04:38:41;;;;;;;30.52;18.48;;;9.30;99.90;;;;;;5072737;28;20082;-74
2022/01/04 04:41:07;;;;;;;32.92;18.60;;;9.30;99.90;;;;;;5072392;28;20021;-75
2022/01/04 04:43:33;;;;;;;31.13;18.55;;;9.30;99.90;;;;;;5072624;28;20021;-73
2022/01/04 04:45:58;;;;;;;29.05;17.27;;;9.30;99.90;;;;;;5072438;28;20032;-74
2022/01/04 04:48:25;;;;;;;26.50;16.27;;;9.30;99.90;;;;;;5072560;28;20379;-74
2022/01/04 04:50:50;;;;;;;31.98;15.75;;;9.30;99.90;;;;;;5072557;28;20021;-75
2022/01/04 04:53:16;;;;;;;30.52;15.48;;;9.30;99.90;;;;;;5072455;28;20570;-75
2022/01/04 04:55:42;;;;;;;25.15;14.27;;;9.30;99.90;;;;;;5072157;28;20425;-75
2022/01/04 04:58:07;;;;;;;26.30;14.50;;;9.20;99.90;;;;;;5072440;28;20024;-74
2022/01/04 05:00:33;;;;;;;28.70;15.43;;;9.20;99.90;;;;;;5072285;28;20396;-75
2022/01/04 05:02:59;;;;;;;35.35;15.27;;;9.20;99.90;;;;;;5072292;28;20029;-75
2022/01/04 05:05:24;;;;;;;25.73;14.95;;;9.20;99.90;;;;;;5072300;28;20042;-75
2022/01/04 05:07:50;;;;;;;29.95;15.68;;;9.20;99.90;;;;;;5072010;28;20137;-75
2022/01/04 05:10:15;;;;;;;30.00;14.20;;;9.20;99.90;;;;;;5072125;28;20025;-75
2022/01/04 05:12:41;;;;;;;28.23;14.02;;;9.10;99.90;;;;;;5072032;28;20484;-75
2022/01/04 05:15:07;;;;;;;24.55;13.82;;;9.10;99.90;;;;;;5072084;28;20028;-75
2022/01/04 05:17:33;;;;;;;29.48;13.65;;;9.10;99.90;;;;;;5071803;28;20039;-75
2022/01/04 05:19:58;;;;;;;26.65;14.50;;;9.10;99.90;;;;;;5072291;28;20024;-74
2022/01/04 05:22:24;;;;;;;29.30;14.48;;;9.10;99.90;;;;;;5071766;28;20021;-74
2022/01/04 05:24:50;;;;;;;27.30;14.80;;;9.00;99.90;;;;;;5071486;28;20190;-74
2022/01/04 05:27:15;;;;;;;26.75;14.00;;;9.10;99.90;;;;;;5071596;28;20094;-74
2022/01/04 05:29:41;;;;;;;23.42;14.18;;;9.10;99.90;;;;;;5071376;28;20028;-74
2022/01/04 05:32:07;;;;;;;26.55;13.85;;;9.00;99.90;;;;;;5071883;28;20452;-74
2022/01/04 05:34:33;;;;;;;27.98;14.27;;;9.00;99.90;;;;;;5071667;28;20020;-75
2022/01/04 05:36:58;;;;;;;23.35;13.40;;;9.00;99.90;;;;;;5071526;28;20093;-75
2022/01/04 05:39:24;;;;;;;21.73;13.73;;;9.00;99.90;;;;;;5071910;28;20021;-74
2022/01/04 05:41:49;;;;;;;24.27;14.15;;;9.00;99.90;;;;;;5071260;28;20077;-74
2022/01/04 05:44:15;;;;;;;23.42;13.40;;;9.00;99.90;;;;;;5071498;28;20451;-75
2022/01/04 05:46:42;;;;;;;24.27;13.90;;;9.00;99.90;;;;;;5071219;28;20024;-75
2022/01/04 05:49:07;;;;;;;23.98;14.02;;;9.00;99.90;;;;;;5071365;28;20111;-75
2022/01/04 05:51:33;;;;;;;26.63;14.88;;;9.00;99.90;;;;;;5071180;28;20096;-75
2022/01/04 05:53:58;;;;;;;26.88;14.40;;;9.00;99.90;;;;;;5071224;28;20023;-75
2022/01/04 05:56:24;;;;;;;26.38;13.98;;;9.00;99.90;;;;;;5071237;28;20542;-75
2022/01/04 05:58:49;;;;;;;25.88;15.60;;;9.00;99.90;;;;;;5071094;28;20020;-74
2022/01/04 06:01:15;;;;;;;26.83;15.57;;;9.00;99.90;;;;;;5071090;28;20095;-75
2022/01/04 06:03:41;;;;;;;28.23;15.55;;;8.90;99.90;;;;;;5070940;28;20020;-75
2022/01/04 06:06:06;;;;;;;28.70;16.27;;;8.90;99.90;;;;;;5070979;28;20369;-75
2022/01/04 06:08:35;;;;;;;31.42;16.55;;;8.90;99.90;;;;;;5070703;28;20025;-75
2022/01/04 06:11:02;;;;;;;30.83;17.08;;;8.90;99.90;;;;;;5071246;28;20028;-74
2022/01/04 06:16:12;;;;;;;34.35;17.67;;;9.00;99.90;;;;;;5070966;28;20039;-74
2022/01/04 06:18:41;;;;;;;33.45;17.95;;;8.90;99.90;;;;;;5071069;28;20024;-74
2022/01/04 06:21:07;;;;;;;35.75;18.10;;;8.90;99.90;;;;;;5070494;28;20024;-74
2022/01/04 06:23:33;;;;;;;37.50;18.73;;;8.90;99.90;;;;;;5070328;28;20060;-74
2022/01/04 06:25:58;;;;;;;35.95;18.25;;;8.90;99.90;;;;;;5070753;28;20028;-73
2022/01/04 06:28:24;;;;;;;31.42;17.70;;;8.90;99.90;;;;;;5070492;28;20031;-74
2022/01/04 06:30:50;;;;;;;38.00;17.42;;;8.90;99.90;;;;;;5070967;28;20021;-74
2022/01/04 06:33:20;;;;;;;33.38;17.90;;;8.90;99.90;;;;;;5070458;28;20076;-74
2022/01/04 06:35:48;;;;;;;31.85;17.15;;;8.90;99.90;;;;;;5061747;28;20017;-75
2022/01/04 06:38:14;;;;;;;30.33;17.23;;;8.90;99.90;;;;;;5053232;28;20357;-75
2022/01/04 06:40:39;;;;;;;34.90;16.45;;;8.90;99.90;;;;;;5049740;28;20017;-74
2022/01/04 06:43:05;;;;;;;32.28;16.08;;;8.90;99.90;;;;;;5050380;28;20100;-76
2022/01/04 06:45:30;;;;;;;31.83;15.95;;;8.90;99.90;;;;;;5032657;28;20017;-76
2022/01/04 06:47:57;;;;;;;27.17;15.55;;;8.90;99.90;;;;;;5050372;28;20061;-74
2022/01/04 06:50:23;;;;;;;29.23;15.45;;;8.90;99.90;;;;;;5032408;28;20384;-75
2022/01/04 06:52:49;;;;;;;34.20;15.65;;;8.90;99.90;;;;;;5050299;28;20029;-74
2022/01/04 06:55:15;;;;;;;33.55;16.48;;;8.90;99.90;;;;;;5050317;28;20021;-74
2022/01/04 06:57:41;;;;;;;31.20;16.05;;;8.90;99.90;;;;;;5050334;28;20029;-75
2022/01/04 07:00:08;;;;;;;31.30;15.82;;;8.90;99.90;;;;;;5032377;28;20736;-74
2022/01/04 07:02:33;;;;;;;33.67;16.58;;;8.90;99.90;;;;;;5050380;28;20029;-75
2022/01/04 07:04:59;;;;;;;29.75;16.17;;;8.90;99.90;;;;;;5049974;28;20024;-74
2022/01/04 07:07:25;;;;;;;42.58;16.75;;;8.90;99.90;;;;;;5050142;28;20036;-74
2022/01/04 07:09:50;;;;;;;37.58;15.32;;;8.90;99.90;;;;;;5050058;28;20021;-74
2022/01/04 07:12:16;;;;;;;34.67;16.00;;;8.90;99.90;;;;;;5050145;28;20024;-75
2022/01/04 07:14:41;;;;;;;32.58;17.13;;;8.90;99.90;;;;;;5050178;28;20107;-74
2022/01/04 07:17:07;;;;;;;30.45;16.10;;;8.90;99.90;;;;;;5050273;28;20033;-74
2022/01/04 07:19:33;;;;;;;30.17;15.68;;;9.00;99.90;;;;;;5049576;28;20028;-74
2022/01/04 07:21:59;;;;;;;35.25;15.73;;;8.90;99.90;;;;;;5049859;28;20032;-74
2022/01/04 07:24:25;;;;;;;32.72;16.15;;;8.90;99.90;;;;;;5048519;28;20389;-74
2022/01/04 07:26:51;;;;;;;35.00;16.58;;;8.90;99.90;;;;;;5050534;28;20064;-75
2022/01/04 07:29:17;;;;;;;32.00;16.52;;;8.90;99.90;;;;;;5050422;28;20072;-74
2022/01/04 07:31:42;;;;;;;31.15;15.93;;;8.90;99.90;;;;;;5049989;28;20033;-74
2022/01/04 07:34:08;;;;;;;30.50;16.52;;;8.90;99.90;;;;;;5050362;28;20108;-74
2022/01/04 07:36:34;;;;;;;36.55;17.48;;;8.90;99.90;;;;;;5048182;28;20024;-73
2022/01/04 07:38:59;;;;;;;41.53;17.50;;;8.90;99.90;;;;;;5088128;28;20020;-75
2022/01/04 07:41:25;;;;;;;33.22;18.42;;;8.90;99.90;;;;;;5085189;28;20013;-76
2022/01/04 07:43:51;;;;;;;38.70;19.13;;;8.90;99.90;;;;;;5069832;28;20056;-75
2022/01/04 07:46:16;;;;;;;45.28;20.33;;;8.90;99.90;;;;;;5069800;28;20472;-73
2022/01/04 07:48:42;;;;;;;45.28;20.17;;;8.90;99.90;;;;;;5069702;28;20024;-74
2022/01/04 07:51:08;;;;;;;42.70;20.33;;;8.90;99.90;;;;;;5069994;28;20320;-74
2022/01/04 07:53:34;;;;;;;48.72;20.98;;;8.90;99.90;;;;;;5077337;28;20012;-74
2022/01/04 07:56:00;;;;;;;45.88;21.25;;;8.90;99.90;;;;;;5066081;28;20025;-74
2022/01/04 07:58:26;;;;;;;46.47;21.45;;;8.90;99.90;;;;;;5053555;28;20025;-75
2022/01/04 08:00:52;;;;;;;31.70;16.30;;;8.90;99.90;;;;;;5058762;28;20108;-74
2022/01/04 08:03:17;;;;;;;30.63;15.90;;;8.90;99.90;;;;;;5065332;28;20036;-75
2022/01/04 08:05:44;;;;;;;29.52;15.35;;;9.00;99.90;;;;;;5056657;28;20506;-75
2022/01/04 08:08:09;;;;;;;32.10;16.38;;;9.00;99.90;;;;;;5060933;28;20385;-73
2022/01/04 08:10:36;;;;;;;30.73;16.27;;;8.90;99.90;;;;;;5049534;28;20020;-75
2022/01/04 08:13:02;;;;;;;36.30;16.75;;;8.90;99.90;;;;;;5057884;28;20017;-74
2022/01/04 08:15:27;;;;;;;39.90;17.23;;;8.90;99.90;;;;;;5054681;28;20029;-75
2022/01/04 08:17:53;;;;;;;37.58;16.83;;;8.90;99.90;;;;;;5076137;28;20373;-73
2022/01/04 08:20:20;;;;;;;32.75;13.75;;;8.90;99.90;;;;;;5066037;28;20645;-72
2022/01/04 08:22:46;;;;;;;35.88;12.77;;;8.90;99.90;;;;;;5060563;28;20029;-73
2022/01/04 08:25:12;;;;;;;30.15;12.30;;;8.90;99.90;;;;;;5065390;28;20129;-74
2022/01/04 08:27:39;;;;;;;24.15;10.65;;;8.90;99.90;;;;;;5059262;28;20032;-75
2022/01/04 08:30:07;;;;;;;26.42;11.82;;;8.90;99.90;;;;;;5061466;28;20017;-74
2022/01/04 08:32:37;;;;;;;29.30;12.70;;;8.90;99.90;;;;;;5052313;28;20511;-74
2022/01/04 08:35:03;;;;;;;27.90;10.90;;;8.90;99.90;;;;;;5044364;28;20181;-74
2022/01/04 08:37:29;;;;;;;24.10;11.88;;;8.90;99.90;;;;;;5054902;28;20056;-74
2022/01/04 08:39:55;;;;;;;26.70;11.52;;;8.90;99.90;;;;;;5036933;28;20025;-74
2022/01/04 08:42:24;;;;;;;25.58;11.13;;;8.90;99.90;;;;;;5060660;28;20015;-75
2022/01/04 08:44:50;;;;;;;23.70;10.48;;;8.90;99.90;;;;;;5071040;28;20029;-74
2022/01/04 08:47:16;;;;;;;26.42;8.55;;;8.90;99.90;;;;;;5062320;28;20495;-75
2022/01/04 08:49:41;;;;;;;21.27;8.40;;;8.90;99.90;;;;;;5063470;28;20021;-74
2022/01/04 08:52:08;;;;;;;19.15;6.03;;;8.90;99.90;;;;;;5061804;28;20106;-75
2022/01/04 08:54:34;;;;;;;16.50;4.97;;;8.90;99.90;;;;;;5035292;28;20040;-74
2022/01/04 08:57:00;;;;;;;16.05;4.88;;;9.00;99.90;;;;;;5051618;28;21021;-75
2022/01/04 08:59:27;;;;;;;14.68;4.20;;;8.90;99.90;;;;;;5053466;28;20134;-76
2022/01/04 09:01:54;;;;;;;18.15;4.35;;;9.00;99.90;;;;;;5057444;28;20037;-74
2022/01/04 09:04:21;;;;;;;16.65;4.22;;;9.00;99.90;;;;;;5051272;28;20032;-74
2022/01/04 09:06:47;;;;;;;14.15;4.40;;;9.00;99.90;;;;;;5052765;28;20384;-74
2022/01/04 09:09:12;;;;;;;15.82;3.92;;;9.00;99.90;;;;;;5060541;28;20028;-75
2022/01/04 09:11:38;;;;;;;14.48;4.03;;;9.00;99.90;;;;;;5055035;28;20531;-74
2022/01/04 09:19:21;;;;;;;17.85;3.67;;;9.10;99.90;;;;;;5051842;28;20031;-74
2022/01/04 09:21:47;;;;;;;18.08;3.40;;;9.10;99.90;;;;;;5051407;28;20380;-74
2022/01/04 09:24:12;;;;;;;17.40;4.38;;;9.10;99.90;;;;;;5053202;28;20132;-73
2022/01/04 09:26:38;;;;;;;14.57;3.95;;;9.10;99.90;;;;;;5070133;28;20067;-74
2022/01/04 09:29:04;;;;;;;17.45;3.85;;;9.10;99.90;;;;;;5071704;28;20021;-74
2022/01/04 09:31:30;;;;;;;20.95;4.10;;;9.10;99.90;;;;;;5070564;28;20021;-74
2022/01/04 09:33:59;;;;;;;22.65;4.28;;;9.10;99.90;;;;;;5054189;28;20037;-74
2022/01/04 09:36:33;;;;;;;17.00;3.90;;;9.10;99.90;;;;;;5054099;28;20087;-74
2022/01/04 09:38:59;;;;;;;13.05;3.20;;;9.10;99.90;;;;;;5051569;28;20029;-74
2022/01/04 09:41:25;;;;;;;12.85;3.08;;;9.10;99.90;;;;;;5050917;28;20048;-74
2022/01/04 09:43:52;;;;;;;17.92;3.13;;;9.10;99.90;;;;;;5048123;28;20037;-74
2022/01/04 09:46:17;;;;;;;24.83;4.15;;;9.10;99.90;;;;;;5051632;28;20485;-74
2022/01/04 09:48:43;;;;;;;21.60;4.55;;;9.10;99.90;;;;;;5050754;28;20079;-74
2022/01/04 09:51:11;;;;;;;26.60;4.53;;;9.20;99.90;;;;;;5050521;28;20028;-74
2022/01/04 09:53:37;;;;;;;28.00;4.40;;;9.20;99.90;;;;;;5052500;28;20107;-73
2022/01/04 09:56:03;;;;;;;27.50;4.40;;;9.20;99.90;;;;;;5049764;28;20449;-73
2022/01/04 09:58:28;;;;;;;29.17;4.47;;;9.30;99.90;;;;;;5050807;28;20043;-74
2022/01/04 10:00:54;;;;;;;21.63;4.28;;;9.20;99.90;;;;;;5053599;28;20025;-75
2022/01/04 10:03:26;;;;;;;25.52;4.40;;;9.20;99.90;;;;;;5053392;28;20024;-76
2022/01/04 10:06:21;;;;;;;26.27;4.25;;;9.20;99.90;;;;;;5050599;28;20057;-75
2022/01/04 10:08:59;;;;;;;25.63;4.77;;;9.20;99.90;;;;;;5029164;28;20432;-75
2022/01/04 10:11:39;;;;;;;27.83;4.90;;;9.20;99.90;;;;;;5050036;28;20535;-76
2022/01/04 10:14:49;;;;;;;23.77;4.50;;;9.20;99.90;;;;;;5050883;28;20104;-75
2022/01/04 10:17:28;;;;;;;23.90;4.70;;;9.20;99.90;;;;;;5048543;28;20060;-75
2022/01/04 10:19:56;;;;;;;21.92;4.80;;;9.20;99.90;;;;;;5050056;28;20104;-74
2022/01/04 10:22:34;;;;;;;26.48;5.20;;;9.20;99.90;;;;;;5050437;28;20052;-75
2022/01/04 10:25:03;;;;;;;26.67;5.05;;;9.20;99.90;;;;;;5050419;28;20118;-75
2022/01/04 10:27:49;;;;;;;23.55;4.40;;;9.20;99.90;;;;;;5052336;28;20037;-79
2022/01/04 10:30:22;;;;;;;25.25;5.13;;;9.20;99.90;;;;;;5050485;28;20032;-76
2022/01/04 10:32:56;;;;;;;30.50;5.10;;;9.20;99.90;;;;;;5051781;28;20032;-75
2022/01/04 10:35:43;;;;;;;22.27;4.63;;;9.20;99.90;;;;;;5049659;28;20408;-75
2022/01/04 10:38:22;;;;;;;24.73;4.68;;;9.20;99.90;;;;;;5049643;28;20099;-76
2022/01/04 10:40:49;;;;;;;28.05;4.60;;;9.20;99.90;;;;;;5050785;28;20036;-75
2022/01/04 10:43:19;;;;;;;22.13;3.67;;;9.20;99.90;;;;;;5056059;28;20024;-75
2022/01/04 10:45:47;;;;;;;15.07;2.88;;;9.20;99.90;;;;;;5050993;28;20025;-75
2022/01/04 10:48:39;;;;;;;14.23;2.58;;;9.10;99.90;;;;;;5049199;28;20036;-76
2022/01/04 10:51:22;;;;;;;14.93;2.35;;;9.10;99.90;;;;;;5053131;28;20499;-76
2022/01/04 10:53:55;;;;;;;13.88;1.65;;;9.00;99.90;;;;;;5054726;28;20060;-76
2022/01/04 10:56:31;;;;;;;12.75;1.55;;;8.80;99.90;;;;;;5056413;28;20052;-76
2022/01/04 10:58:58;;;;;;;11.63;1.40;;;8.80;99.90;;;;;;5055650;28;20368;-76
2022/01/04 11:01:28;;;;;;;8.95;1.40;;;8.70;99.90;;;;;;5056755;28;20439;-76
2022/01/04 11:03:56;;;;;;;10.10;1.50;;;8.60;99.90;;;;;;5058491;28;20112;-75
2022/01/04 11:06:35;;;;;;;12.90;1.40;;;8.60;99.90;;;;;;5057975;28;20047;-75
2022/01/04 11:09:03;;;;;;;6.47;1.27;;;8.60;99.90;;;;;;5057935;28;20650;-76
2022/01/04 11:11:28;;;;;;;8.18;1.40;;;8.50;99.90;;;;;;5057375;28;20380;-75
2022/01/04 11:13:54;;;;;;;10.90;1.23;;;8.50;99.90;;;;;;5061051;28;20017;-76
2022/01/04 11:16:22;;;;;;;6.30;1.33;;;8.50;99.90;;;;;;5041456;28;20372;-76
2022/01/04 11:18:52;;;;;;;8.57;1.45;;;8.40;99.90;;;;;;5054925;28;20036;-75
2022/01/04 11:21:31;;;;;;;10.77;1.30;;;8.40;99.90;;;;;;5050472;28;20087;-75
2022/01/04 11:23:58;;;;;;;12.00;1.20;;;8.40;99.90;;;;;;5051972;28;20064;-76
2022/01/04 11:26:24;;;;;;;7.25;1.00;;;8.30;99.90;;;;;;5061080;28;20656;-75
2022/01/04 11:28:51;;;;;;;8.48;1.20;;;8.30;99.90;;;;;;5061561;28;20033;-76
2022/01/04 11:31:45;;;;;;;8.00;1.20;;;8.30;99.90;;;;;;5059905;28;20021;-76
2022/01/04 11:34:14;;;;;;;5.60;1.00;;;8.30;99.90;;;;;;5060086;28;20131;-76
2022/01/04 11:36:47;;;;;;;5.70;1.00;;;8.20;99.90;;;;;;5058037;28;20411;-75
2022/01/04 11:39:32;;;;;;;7.38;1.02;;;8.30;99.90;;;;;;5057221;28;20431;-77
2022/01/04 11:42:06;;;;;;;6.95;1.05;;;8.30;99.90;;;;;;5058209;28;20497;-78
2022/01/04 11:44:32;;;;;;;10.20;1.48;;;8.20;99.90;;;;;;5064608;28;20028;-76
2022/01/04 11:47:37;;;;;;;2.70;0.98;;;8.20;99.90;;;;;;5065801;28;20037;-76
2022/01/04 11:50:20;;;;;;;9.50;1.20;;;8.20;99.90;;;;;;5063381;28;20039;-75
2022/01/04 11:52:51;;;;;;;10.30;1.25;;;8.20;99.90;;;;;;5049910;28;20031;-75
2022/01/04 11:55:23;;;;;;;10.25;1.50;;;8.20;99.90;;;;;;5064917;28;20104;-76
2022/01/04 11:57:51;;;;;;;6.47;1.10;;;8.30;99.90;;;;;;5069722;28;20029;-75
2022/01/04 12:00:29;;;;;;;4.90;0.93;;;8.30;99.90;;;;;;5072292;28;20044;-75
2022/01/04 12:03:44;;;;;;;6.80;1.30;;;8.20;99.90;;;;;;5063009;28;20116;-75
2022/01/04 12:06:11;;;;;;;8.00;1.10;;;8.20;99.90;;;;;;5053375;28;20029;-75
2022/01/04 12:08:41;;;;;;;6.43;0.93;;;8.10;99.90;;;;;;5045770;28;20044;-75
2022/01/04 12:11:21;;;;;;;17.02;1.50;;;8.10;99.90;;;;;;5072080;28;20008;-75
2022/01/04 12:13:50;;;;;;;8.52;1.10;;;8.10;99.90;;;;;;5074089;28;20511;-75
2022/01/04 12:16:33;;;;;;;11.93;1.25;;;8.00;99.90;;;;;;5063666;28;20027;-74
2022/01/04 12:19:00;;;;;;;14.60;1.35;;;8.00;99.90;;;;;;5045991;28;20562;-77
2022/01/04 12:21:28;;;;;;;16.13;1.30;;;8.00;99.90;;;;;;5061353;28;20112;-76
2022/01/04 12:23:56;;;;;;;11.48;1.20;;;7.90;99.90;;;;;;5063714;28;20041;-74
2022/01/04 12:26:24;;;;;;;12.75;1.50;;;7.90;99.90;;;;;;5059977;28;20364;-76
2022/01/04 12:28:57;;;;;;;10.52;1.38;;;7.90;99.90;;;;;;5061925;28;20553;-75
2022/01/04 12:31:34;;;;;;;7.53;1.20;;;7.80;99.90;;;;;;5057489;28;20032;-74
2022/01/04 12:34:31;;;;;;;13.55;1.40;;;7.80;99.90;;;;;;5060494;28;20024;-75
2022/01/04 12:37:00;;;;;;;7.40;1.30;;;7.70;99.90;;;;;;5062078;28;20059;-75
2022/01/04 12:39:40;;;;;;;9.85;1.38;;;7.60;99.90;;;;;;5042501;28;20372;-75
2022/01/04 12:42:10;;;;;;;9.55;1.20;;;7.60;99.90;;;;;;5059796;28;20059;-73
2022/01/04 12:44:36;;;;;;;9.95;1.67;;;7.50;99.90;;;;;;5059571;28;20052;-76
2022/01/04 12:47:02;;;;;;;10.30;1.63;;;7.50;99.90;;;;;;5073022;28;20375;-75
2022/01/04 12:49:31;;;;;;;8.68;1.15;;;7.50;99.90;;;;;;5055425;28;20038;-75
2022/01/04 12:52:00;;;;;;;7.57;1.08;;;7.40;99.90;;;;;;5068777;28;20059;-76
2022/01/04 12:54:29;;;;;;;8.40;1.45;;;7.40;99.90;;;;;;5068865;28;20036;-75